createdAt,value
2018-09-22T00:01:28.253Z,1.40
2018-09-22T00:03:57.547Z,1.10
2018-09-22T00:06:27.047Z,1.27
2018-09-22T00:08:56.888Z,1.30
2018-09-22T00:11:25.749Z,1.30
2018-09-22T00:13:54.673Z,1.30
2018-09-22T00:16:24.355Z,1.47
2018-09-22T00:18:53.224Z,1.50
2018-09-22T00:21:23.894Z,1.57
2018-09-22T00:23:52.671Z,1.20
2018-09-22T00:26:21.896Z,1.40
2018-09-22T00:28:51.536Z,1.27
2018-09-22T00:31:19.996Z,1.50
2018-09-22T00:33:48.416Z,1.40
2018-09-22T00:36:16.889Z,1.57
2018-09-22T00:38:45.940Z,1.40
2018-09-22T00:41:14.883Z,1.40
2018-09-22T00:43:43.640Z,1.53
2018-09-22T00:46:13.309Z,1.27
2018-09-22T00:48:42.923Z,1.10
2018-09-22T00:51:11.725Z,1.00
2018-09-22T00:53:40.449Z,1.57
2018-09-22T00:56:09.288Z,1.60
2018-09-22T00:58:38.059Z,1.50
2018-09-22T01:01:07.329Z,1.30
2018-09-22T01:03:36.316Z,1.43
2018-09-22T01:06:06.417Z,1.30
2018-09-22T01:08:36.243Z,1.30
2018-09-22T01:11:05.691Z,1.17
2018-09-22T01:13:35.075Z,1.10
2018-09-22T01:16:04.420Z,1.67
2018-09-22T01:18:33.454Z,1.30
2018-09-22T01:21:02.767Z,1.57
2018-09-22T01:23:31.552Z,1.33
2018-09-22T01:26:00.349Z,1.40
2018-09-22T01:28:30.212Z,1.20
2018-09-22T01:30:58.996Z,1.23
2018-09-22T01:33:27.877Z,1.53
2018-09-22T01:35:57.355Z,1.63
2018-09-22T01:38:27.120Z,1.30
2018-09-22T01:40:57.149Z,1.70
2018-09-22T01:43:26.008Z,1.33
2018-09-22T01:45:56.015Z,1.43
2018-09-22T01:48:24.764Z,1.30
2018-09-22T01:50:54.540Z,1.30
2018-09-22T01:53:24.003Z,1.40
2018-09-22T01:55:52.857Z,1.40
2018-09-22T01:58:21.593Z,1.30
2018-09-22T02:00:51.548Z,1.40
2018-09-22T02:03:21.000Z,1.60
2018-09-22T02:05:50.913Z,1.50
2018-09-22T02:08:20.318Z,1.47
2018-09-22T02:10:49.925Z,1.40
2018-09-22T02:13:18.764Z,1.03
2018-09-22T02:15:48.337Z,1.30
2018-09-22T02:18:16.801Z,1.27
2018-09-22T02:20:46.227Z,1.70
2018-09-22T02:23:15.340Z,1.47
2018-09-22T02:25:44.495Z,1.30
2018-09-22T02:28:13.627Z,1.60
2018-09-22T02:30:42.916Z,1.53
2018-09-22T02:33:12.319Z,1.47
2018-09-22T02:35:41.079Z,1.27
2018-09-22T02:38:09.956Z,1.40
2018-09-22T02:40:39.336Z,1.97
2018-09-22T02:43:08.309Z,1.57
2018-09-22T02:45:37.608Z,1.50
2018-09-22T02:48:06.884Z,1.57
2018-09-22T02:50:35.685Z,1.40
2018-09-22T02:53:04.532Z,1.50
2018-09-22T02:55:34.681Z,1.63
2018-09-22T02:58:03.792Z,1.70
2018-09-22T03:00:32.889Z,1.40
2018-09-22T03:03:02.164Z,1.90
2018-09-22T03:05:30.621Z,1.70
2018-09-22T03:07:59.683Z,1.70
2018-09-22T03:10:28.657Z,1.60
2018-09-22T03:12:58.070Z,1.70
2018-09-22T03:15:26.818Z,1.60
2018-09-22T03:17:55.930Z,1.40
2018-09-22T03:20:24.624Z,1.30
2018-09-22T03:22:54.431Z,1.63
2018-09-22T03:25:23.937Z,1.33
2018-09-22T03:27:52.762Z,1.60
2018-09-22T03:30:21.783Z,1.40
2018-09-22T03:32:51.260Z,1.93
2018-09-22T03:35:20.829Z,1.70
2018-09-22T03:37:49.829Z,1.83
2018-09-22T03:40:19.424Z,1.93
2018-09-22T03:42:49.234Z,1.97
2018-09-22T03:45:19.687Z,1.70
2018-09-22T03:47:49.819Z,1.57
2018-09-22T03:50:19.908Z,1.50
2018-09-22T03:52:49.693Z,1.37
2018-09-22T03:55:18.130Z,1.40
2018-09-22T03:57:47.565Z,1.63
2018-09-22T04:00:16.716Z,1.73
2018-09-22T04:02:46.401Z,1.93
2018-09-22T04:05:15.335Z,1.43
2018-09-22T04:07:43.767Z,1.60
2018-09-22T04:10:14.854Z,1.80
2018-09-22T04:12:43.725Z,1.20
2018-09-22T04:15:13.220Z,1.90
2018-09-22T04:17:43.002Z,1.43
2018-09-22T04:20:11.924Z,1.67
2018-09-22T04:22:40.577Z,1.83
2018-09-22T04:25:09.888Z,1.80
2018-09-22T04:27:39.431Z,1.60
2018-09-22T04:30:08.268Z,1.40
2018-09-22T04:32:37.345Z,2.10
2018-09-22T04:35:06.521Z,1.77
2018-09-22T04:37:35.536Z,2.83
2018-09-22T04:40:05.141Z,1.43
2018-09-22T04:42:34.577Z,1.93
2018-09-22T04:45:03.638Z,2.00
2018-09-22T04:47:33.133Z,2.20
2018-09-22T04:50:02.577Z,1.53
2018-09-22T04:52:31.666Z,1.80
2018-09-22T04:55:00.493Z,1.57
2018-09-22T04:57:29.945Z,1.33
2018-09-22T04:59:59.423Z,2.07
2018-09-22T05:02:27.868Z,1.70
2018-09-22T05:04:56.882Z,1.53
2018-09-22T05:07:25.855Z,1.60
2018-09-22T05:09:54.798Z,2.17
2018-09-22T05:12:24.501Z,1.90
2018-09-22T05:14:53.797Z,1.80
2018-09-22T05:17:22.659Z,1.50
2018-09-22T05:19:51.526Z,1.40
2018-09-22T05:22:20.628Z,2.33
2018-09-22T05:24:50.514Z,1.77
2018-09-22T05:27:20.366Z,1.77
2018-09-22T05:29:49.411Z,1.33
2018-09-22T05:32:18.653Z,1.60
2018-09-22T05:34:47.809Z,1.80
2018-09-22T05:37:17.329Z,1.90
2018-09-22T05:39:46.465Z,1.77
2018-09-22T05:42:15.576Z,2.20
2018-09-22T05:44:44.576Z,1.73
2018-09-22T05:47:14.625Z,1.50
2018-09-22T05:49:43.424Z,2.17
2018-09-22T05:52:13.262Z,1.97
2018-09-22T05:54:43.456Z,1.50
2018-09-22T05:57:13.344Z,1.90
2018-09-22T05:59:43.370Z,1.80
2018-09-22T06:02:13.572Z,1.60
2018-09-22T06:04:42.392Z,2.03
2018-09-22T06:07:11.848Z,1.70
2018-09-22T06:09:40.949Z,1.90
2018-09-22T06:12:09.926Z,1.60
2018-09-22T06:14:39.002Z,2.20
2018-09-22T06:17:08.040Z,1.77
2018-09-22T06:19:37.572Z,1.80
2018-09-22T06:22:06.511Z,1.30
2018-09-22T06:24:35.670Z,1.50
2018-09-22T06:27:04.843Z,1.70
2018-09-22T06:29:33.776Z,1.70
2018-09-22T06:32:03.669Z,1.77
2018-09-22T06:34:32.294Z,1.80
2018-09-22T06:37:02.764Z,1.77
2018-09-22T06:39:31.863Z,1.90
2018-09-22T06:42:01.409Z,2.27
2018-09-22T06:44:30.642Z,1.60
2018-09-22T06:46:59.349Z,1.83
2018-09-22T06:49:28.438Z,2.13
2018-09-22T06:51:57.501Z,2.13
2018-09-22T06:54:26.373Z,1.77
2018-09-22T06:56:55.265Z,1.73
2018-09-22T06:59:24.309Z,2.03
2018-09-22T07:01:53.544Z,2.10
2018-09-22T07:04:23.256Z,2.10
2018-09-22T07:06:52.714Z,2.00
2018-09-22T07:09:21.968Z,2.03
2018-09-22T07:11:51.533Z,1.97
2018-09-22T07:14:20.568Z,2.07
2018-09-22T07:16:49.673Z,2.10
2018-09-22T07:19:19.002Z,1.77
2018-09-22T07:21:53.084Z,2.23
2018-09-22T07:24:22.449Z,2.10
2018-09-22T07:26:52.436Z,2.27
2018-09-22T07:29:21.840Z,2.33
2018-09-22T07:31:51.574Z,2.03
2018-09-22T07:34:20.113Z,2.10
2018-09-22T07:36:48.621Z,2.20
2018-09-22T07:39:18.222Z,1.73
2018-09-22T07:41:47.042Z,1.97
2018-09-22T07:44:16.320Z,2.03
2018-09-22T07:46:44.763Z,2.17
2018-09-22T07:49:14.104Z,2.37
2018-09-22T07:51:44.040Z,2.00
2018-09-22T07:54:12.977Z,2.47
2018-09-22T07:56:42.348Z,2.07
2018-09-22T07:59:11.129Z,2.33
2018-09-22T08:01:40.137Z,2.07
2018-09-22T08:04:08.949Z,1.70
2018-09-22T08:06:37.664Z,2.27
2018-09-22T08:09:08.009Z,1.90
2018-09-22T08:11:37.196Z,2.30
2018-09-22T08:14:07.147Z,2.60
2018-09-22T08:16:36.628Z,2.07
2018-09-22T08:19:05.066Z,2.03
2018-09-22T08:21:34.109Z,1.77
2018-09-22T08:24:02.851Z,2.10
2018-09-22T08:26:32.116Z,1.57
2018-09-22T08:29:00.683Z,1.80
2018-09-22T08:31:29.808Z,2.27
2018-09-22T08:33:58.584Z,2.47
2018-09-22T08:36:28.530Z,1.90
2018-09-22T08:38:57.107Z,2.07
2018-09-22T08:41:26.944Z,1.80
2018-09-22T08:43:55.476Z,2.10
2018-09-22T08:46:24.528Z,2.07
2018-09-22T08:48:53.509Z,2.30
2018-09-22T08:51:22.423Z,2.30
2018-09-22T08:53:50.909Z,1.90
2018-09-22T08:56:19.313Z,1.80
2018-09-22T08:58:47.776Z,2.33
2018-09-22T09:01:17.548Z,2.03
2018-09-22T09:03:46.726Z,1.83
2018-09-22T09:06:15.401Z,1.93
2018-09-22T09:08:43.867Z,1.70
2018-09-22T09:11:12.626Z,2.27
2018-09-22T09:13:42.250Z,1.70
2018-09-22T09:16:11.772Z,2.17
2018-09-22T09:18:41.041Z,2.07
2018-09-22T09:21:09.567Z,2.00
2018-09-22T09:23:38.553Z,2.20
2018-09-22T09:26:08.222Z,1.77
2018-09-22T09:28:37.087Z,2.10
2018-09-22T09:31:07.024Z,1.77
2018-09-22T09:33:36.757Z,2.27
2018-09-22T09:36:07.397Z,2.43
2018-09-22T09:38:36.660Z,1.80
2018-09-22T09:41:05.400Z,1.40
2018-09-22T09:43:34.214Z,1.90
2018-09-22T09:46:02.898Z,1.63
2018-09-22T09:48:32.104Z,1.97
2018-09-22T09:51:00.788Z,1.67
2018-09-22T09:53:29.933Z,1.47
2018-09-22T09:55:59.321Z,2.20
2018-09-22T09:58:28.128Z,1.83
2018-09-22T10:00:57.591Z,1.77
2018-09-22T10:03:26.601Z,1.70
2018-09-22T10:05:56.396Z,1.33
2018-09-22T10:08:25.437Z,1.57
2018-09-22T10:10:54.153Z,1.77
2018-09-22T10:13:22.895Z,1.60
2018-09-22T10:15:51.345Z,1.50
2018-09-22T10:18:20.585Z,1.50
2018-09-22T10:20:49.278Z,1.50
2018-09-22T10:23:18.480Z,1.50
2018-09-22T10:25:47.409Z,1.40
2018-09-22T10:28:17.792Z,1.43
2018-09-22T10:30:46.661Z,1.40
2018-09-22T10:33:15.713Z,1.30
2018-09-22T10:35:45.454Z,1.40
2018-09-22T10:38:13.884Z,1.30
2018-09-22T10:40:44.181Z,1.30
2018-09-22T10:43:13.092Z,1.40
2018-09-22T10:45:41.576Z,1.47
2018-09-22T10:48:10.105Z,1.07
2018-09-22T10:50:39.516Z,1.43
2018-09-22T10:53:08.017Z,1.33
2018-09-22T10:55:37.458Z,1.00
2018-09-22T10:58:06.169Z,1.27
2018-09-22T11:00:35.925Z,1.40
2018-09-22T11:03:04.702Z,1.30
2018-09-22T11:05:33.932Z,1.30
2018-09-22T11:08:03.118Z,1.20
2018-09-22T11:10:31.817Z,1.23
2018-09-22T11:13:00.784Z,1.27
2018-09-22T11:15:30.696Z,1.60
2018-09-22T11:17:59.757Z,1.40
2018-09-22T11:20:29.049Z,1.20
2018-09-22T11:22:58.547Z,1.23
2018-09-22T11:25:28.217Z,1.33
2018-09-22T11:27:57.014Z,1.57
2018-09-22T11:30:26.576Z,1.30
2018-09-22T11:32:56.180Z,1.50
2018-09-22T11:35:24.892Z,1.37
2018-09-22T11:37:53.312Z,1.27
2018-09-22T11:40:22.465Z,1.23
2018-09-22T11:42:51.166Z,2.27
2018-09-22T11:45:21.167Z,1.33
2018-09-22T11:47:50.307Z,1.57
2018-09-22T11:50:19.072Z,1.63
2018-09-22T11:52:47.904Z,1.80
2018-09-22T11:55:17.172Z,1.37
2018-09-22T11:57:47.068Z,1.57
2018-09-22T12:00:17.217Z,1.80
2018-09-22T12:02:46.398Z,1.20
2018-09-22T12:05:14.841Z,1.43
2018-09-22T12:07:43.660Z,1.40
2018-09-22T12:10:13.129Z,1.23
2018-09-22T12:12:42.312Z,1.33
2018-09-22T12:15:11.237Z,1.47
2018-09-22T12:17:41.252Z,1.30
2018-09-22T12:20:10.458Z,1.50
2018-09-22T12:22:39.766Z,1.60
2018-09-22T12:25:09.269Z,1.37
2018-09-22T12:27:38.055Z,1.47
2018-09-22T12:30:07.242Z,1.37
2018-09-22T12:32:36.590Z,1.47
2018-09-22T12:35:05.995Z,1.50
2018-09-22T12:37:35.452Z,1.20
2018-09-22T12:40:04.385Z,1.33
2018-09-22T12:42:32.802Z,1.33
2018-09-22T12:45:01.710Z,1.33
2018-09-22T12:47:31.215Z,1.60
2018-09-22T12:50:00.551Z,1.43
2018-09-22T12:52:29.339Z,1.37
2018-09-22T12:54:58.344Z,1.40
2018-09-22T12:57:27.698Z,1.43
2018-09-22T12:59:56.485Z,1.23
2018-09-22T13:02:25.488Z,1.40
2018-09-22T13:04:54.513Z,1.30
2018-09-22T13:07:23.595Z,1.40
2018-09-22T13:09:52.042Z,1.20
2018-09-22T13:12:21.761Z,1.43
2018-09-22T13:14:50.887Z,1.60
2018-09-22T13:17:19.938Z,1.70
2018-09-22T13:19:49.444Z,1.30
2018-09-22T13:22:18.888Z,1.57
2018-09-22T13:24:47.507Z,1.57
2018-09-22T13:27:16.642Z,1.67
2018-09-22T13:29:45.747Z,1.70
2018-09-22T13:32:14.541Z,2.00
2018-09-22T13:34:44.003Z,1.63
2018-09-22T13:37:13.452Z,1.70
2018-09-22T13:39:42.693Z,2.20
2018-09-22T13:42:11.151Z,1.43
2018-09-22T13:44:40.537Z,1.60
2018-09-22T13:47:09.821Z,1.70
2018-09-22T13:49:38.977Z,1.80
2018-09-22T13:52:07.867Z,1.57
2018-09-22T13:54:36.546Z,1.70
2018-09-22T13:57:05.530Z,1.53
2018-09-22T13:59:35.220Z,1.90
2018-09-22T14:02:04.736Z,1.60
2018-09-22T14:04:33.890Z,1.40
2018-09-22T14:07:03.404Z,1.73
2018-09-22T14:09:32.380Z,1.97
2018-09-22T14:12:01.730Z,1.77
2018-09-22T14:14:30.868Z,1.63
2018-09-22T14:16:59.834Z,1.80
2018-09-22T14:19:29.444Z,1.80
2018-09-22T14:21:58.164Z,1.50
2018-09-22T14:24:26.944Z,1.70
2018-09-22T14:26:55.823Z,1.73
2018-09-22T14:29:24.945Z,1.50
2018-09-22T14:31:54.865Z,1.60
2018-09-22T14:34:24.295Z,1.80
2018-09-22T14:36:53.628Z,1.43
2018-09-22T14:39:22.177Z,1.53
2018-09-22T14:41:51.207Z,1.80
2018-09-22T14:44:20.137Z,1.53
2018-09-22T14:46:49.986Z,1.30
2018-09-22T14:49:19.119Z,1.50
2018-09-22T14:51:48.392Z,1.50
2018-09-22T14:54:18.276Z,1.57
2018-09-22T14:56:47.358Z,1.63
2018-09-22T14:59:16.525Z,1.63
2018-09-22T15:01:45.985Z,1.30
2018-09-22T15:04:15.873Z,1.57
2018-09-22T15:06:44.554Z,1.63
2018-09-22T15:09:13.841Z,1.43
2018-09-22T15:11:42.261Z,1.30
2018-09-22T15:14:11.762Z,1.30
2018-09-22T15:16:40.556Z,1.47
2018-09-22T15:19:09.779Z,1.50
2018-09-22T15:21:38.322Z,1.57
2018-09-22T15:24:07.893Z,1.17
2018-09-22T15:26:37.401Z,1.67
2018-09-22T15:29:06.300Z,1.43
2018-09-22T15:31:34.810Z,1.67
2018-09-22T15:34:03.641Z,1.60
2018-09-22T15:36:32.950Z,1.30
2018-09-22T15:39:02.383Z,1.20
2018-09-22T15:41:32.327Z,1.20
2018-09-22T15:44:01.417Z,1.13
2018-09-22T15:46:30.721Z,1.50
2018-09-22T15:48:59.412Z,1.60
2018-09-22T15:51:28.053Z,1.20
2018-09-22T15:53:57.571Z,1.50
2018-09-22T15:56:26.252Z,1.53
2018-09-22T15:58:55.208Z,1.50
2018-09-22T16:01:24.683Z,1.57
2018-09-22T16:03:53.605Z,1.57
2018-09-22T16:06:22.970Z,1.57
2018-09-22T16:08:51.790Z,1.40
2018-09-22T16:11:20.591Z,1.30
2018-09-22T16:13:49.713Z,1.57
2018-09-22T16:16:18.144Z,1.43
2018-09-22T16:18:47.620Z,1.20
2018-09-22T16:21:16.939Z,1.27
2018-09-22T16:23:46.237Z,1.50
2018-09-22T16:26:14.994Z,1.40
2018-09-22T16:28:43.682Z,1.60
2018-09-22T16:31:12.338Z,1.10
2018-09-22T16:33:42.151Z,1.60
2018-09-22T16:36:10.883Z,1.10
2018-09-22T16:38:41.361Z,1.47
2018-09-22T16:41:10.194Z,1.60
2018-09-22T16:43:39.557Z,1.40
2018-09-22T16:46:08.659Z,1.23
2018-09-22T16:48:37.627Z,1.37
2018-09-22T16:51:07.201Z,1.30
2018-09-22T16:53:36.498Z,1.20
2018-09-22T16:56:06.050Z,1.47
2018-09-22T16:58:35.141Z,1.30
2018-09-22T17:01:04.836Z,1.10
2018-09-22T17:03:34.069Z,1.00
2018-09-22T17:06:03.988Z,1.20
2018-09-22T17:08:32.744Z,1.17
2018-09-22T17:11:01.836Z,1.57
2018-09-22T17:13:31.322Z,1.27
2018-09-22T17:16:00.212Z,1.10
2018-09-22T17:18:29.649Z,1.20
2018-09-22T17:20:58.667Z,1.40
2018-09-22T17:23:27.444Z,1.33
2018-09-22T17:25:56.304Z,1.30
2018-09-22T17:28:25.112Z,1.53
2018-09-22T17:30:54.105Z,1.37
2018-09-22T17:33:24.682Z,1.93
2018-09-22T17:35:53.765Z,1.67
2018-09-22T17:38:23.220Z,1.63
2018-09-22T17:40:51.694Z,1.60
2018-09-22T17:43:21.931Z,1.77
2018-09-22T17:45:51.922Z,1.80
2018-09-22T17:48:20.428Z,2.00
2018-09-22T17:50:49.693Z,1.77
2018-09-22T17:53:18.469Z,1.40
2018-09-22T17:55:47.937Z,1.97
2018-09-22T17:58:17.328Z,1.50
2018-09-22T18:00:46.545Z,1.67
2018-09-22T18:03:15.480Z,1.80
2018-09-22T18:05:44.712Z,1.60
2018-09-22T18:08:13.432Z,1.60
2018-09-22T18:10:42.145Z,1.87
2018-09-22T18:13:11.096Z,1.90
2018-09-22T18:15:40.593Z,1.70
2018-09-22T18:18:09.360Z,1.40
2018-09-22T18:20:38.352Z,1.20
2018-09-22T18:23:07.214Z,1.67
2018-09-22T18:25:36.952Z,1.47
2018-09-22T18:28:06.122Z,1.93
2018-09-22T18:30:35.589Z,1.60
2018-09-22T18:33:05.662Z,1.50
2018-09-22T18:35:34.427Z,1.80
2018-09-22T18:38:04.000Z,1.73
2018-09-22T18:40:32.455Z,1.60
2018-09-22T18:43:01.573Z,1.90
2018-09-22T18:45:30.413Z,1.77
2018-09-22T18:47:59.177Z,1.30
2018-09-22T18:50:28.236Z,1.70
2018-09-22T18:52:56.678Z,2.20
2018-09-22T18:55:25.100Z,1.80
2018-09-22T18:57:53.805Z,1.70
2018-09-22T19:00:22.208Z,1.90
2018-09-22T19:02:51.694Z,2.33
2018-09-22T19:05:20.556Z,2.63
2018-09-22T19:07:49.244Z,1.90
2018-09-22T19:10:18.132Z,1.83
2018-09-22T19:12:46.705Z,2.10
2018-09-22T19:15:47.092Z,2.23
2018-09-22T19:18:21.264Z,2.47
2018-09-22T19:20:54.123Z,1.80
2018-09-22T19:23:45.032Z,2.30
2018-09-22T19:26:16.241Z,1.70
2018-09-22T19:28:48.698Z,1.90
2018-09-22T19:31:28.328Z,1.70
2018-09-22T19:34:02.752Z,1.90
2018-09-22T19:36:35.211Z,1.80
2018-09-22T19:39:07.518Z,1.70
2018-09-22T19:41:41.721Z,1.87
2018-09-22T19:44:20.661Z,1.77
2018-09-22T19:46:59.989Z,2.33
2018-09-22T19:49:34.035Z,2.03
2018-09-22T19:52:07.953Z,1.93
2018-09-22T19:54:36.388Z,2.20
2018-09-22T19:57:05.298Z,2.43
2018-09-22T19:59:34.022Z,2.23
2018-09-22T20:02:03.059Z,1.73
2018-09-22T20:04:32.305Z,2.37
2018-09-22T20:07:01.449Z,2.63
2018-09-22T20:09:30.576Z,2.17
2018-09-22T20:11:59.822Z,2.23
2018-09-22T20:14:29.023Z,2.17
2018-09-22T20:16:57.454Z,2.10
2018-09-22T20:19:26.462Z,1.90
2018-09-22T20:21:54.875Z,1.87
2018-09-22T20:24:23.928Z,2.47
2018-09-22T20:26:53.180Z,1.97
2018-09-22T20:29:22.420Z,2.17
2018-09-22T20:31:51.324Z,2.07
2018-09-22T20:34:20.400Z,1.80
2018-09-22T20:36:49.076Z,1.87
2018-09-22T20:39:17.588Z,2.30
2018-09-22T20:41:46.329Z,2.27
2018-09-22T20:44:16.101Z,2.43
2018-09-22T20:46:45.104Z,2.00
2018-09-22T20:49:13.554Z,2.47
2018-09-22T20:51:42.407Z,2.30
2018-09-22T20:54:11.800Z,2.40
2018-09-22T20:56:40.819Z,1.97
2018-09-22T20:59:09.988Z,2.33
2018-09-22T21:01:38.642Z,2.20
2018-09-22T21:04:07.636Z,2.50
2018-09-22T21:06:36.420Z,2.57
2018-09-22T21:09:06.623Z,2.70
2018-09-22T21:11:35.583Z,2.50
2018-09-22T21:14:04.125Z,2.10
2018-09-22T21:16:33.626Z,2.43
2018-09-22T21:19:02.718Z,2.20
2018-09-22T21:21:31.767Z,2.30
2018-09-22T21:24:00.201Z,2.70
2018-09-22T21:26:28.624Z,2.87
2018-09-22T21:28:57.720Z,2.50
2018-09-22T21:31:26.260Z,2.30
2018-09-22T21:33:55.404Z,2.43
2018-09-22T21:36:23.828Z,3.03
2018-09-22T21:38:52.262Z,2.80
2018-09-22T21:41:21.853Z,3.40
2018-09-22T21:43:50.533Z,3.07
2018-09-22T21:46:19.742Z,2.50
2018-09-22T21:48:48.189Z,2.50
2018-09-22T21:51:17.129Z,2.67
2018-09-22T21:53:45.594Z,3.20
2018-09-22T21:56:15.858Z,2.93
2018-09-22T21:58:45.260Z,2.90
2018-09-22T22:01:19.121Z,2.90
2018-09-22T22:03:49.843Z,2.50
2018-09-22T22:06:18.595Z,2.60
2018-09-22T22:08:47.733Z,2.47
2018-09-22T22:11:17.069Z,2.40
2018-09-22T22:13:45.856Z,2.37
2018-09-22T22:16:14.748Z,2.60
2018-09-22T22:18:43.770Z,2.40
2018-09-22T22:21:12.433Z,2.67
2018-09-22T22:23:40.961Z,2.87
2018-09-22T22:26:10.989Z,3.07
2018-09-22T22:28:39.438Z,3.07
2018-09-22T22:31:08.706Z,2.70
2018-09-22T22:33:38.280Z,2.83
2018-09-22T22:36:06.770Z,2.60
2018-09-22T22:38:36.044Z,2.70
2018-09-22T22:41:05.024Z,2.47
2018-09-22T22:43:33.443Z,3.00
2018-09-22T22:46:02.530Z,2.83
2018-09-22T22:48:31.915Z,2.97
2018-09-22T22:51:00.360Z,2.70
2018-09-22T22:53:29.620Z,2.87
2018-09-22T22:55:58.280Z,3.20
2018-09-22T22:58:27.076Z,3.40
2018-09-22T23:00:56.789Z,3.77
2018-09-22T23:03:25.605Z,2.90
2018-09-22T23:05:54.725Z,3.50
2018-09-22T23:08:23.508Z,3.27
2018-09-22T23:10:52.121Z,3.10
2018-09-22T23:13:22.057Z,3.17
2018-09-22T23:15:50.721Z,3.17
2018-09-22T23:18:19.145Z,2.93
2018-09-22T23:20:47.831Z,3.07
2018-09-22T23:23:17.059Z,2.77
2018-09-22T23:25:46.123Z,3.23
2018-09-22T23:28:14.548Z,3.13
2018-09-22T23:30:43.104Z,2.50
2018-09-22T23:33:12.213Z,2.90
2018-09-22T23:35:41.869Z,2.30
2018-09-22T23:38:10.324Z,2.13
2018-09-22T23:40:39.471Z,2.00
2018-09-22T23:43:08.239Z,2.03
2018-09-22T23:45:37.009Z,2.00
2018-09-22T23:48:05.920Z,2.03
2018-09-22T23:50:34.365Z,2.43
2018-09-22T23:53:03.701Z,1.90
2018-09-22T23:55:32.364Z,2.07
2018-09-22T23:58:01.017Z,2.20
